sensor_id;sensor_type;location;lat;lon;timestamp;pressure;altitude;pressure_sealevel;temperature;humidity
33845;BME280;20145;43.118;25.694;2023-05-21T00:01:40;99407.75;;;12.52;100.00
33845;BME280;20145;43.118;25.694;2023-05-21T00:04:07;99411.31;;;12.47;100.00
33845;BME280;20145;43.118;25.694;2023-05-21T00:06:34;99387.53;;;12.28;100.00
33845;BME280;20145;43.118;25.694;2023-05-21T00:09:03;99413.09;;;12.44;100.00
33845;BME280;20145;43.118;25.694;2023-05-21T00:11:30;99411.38;;;12.43;100.00
33845;BME280;20145;43.118;25.694;2023-05-21T00:13:56;99398.50;;;12.40;100.00
33845;BME280;20145;43.118;25.694;2023-05-21T00:16:22;99402.91;;;12.35;100.00
33845;BME280;20145;43.118;25.694;2023-05-21T00:18:48;99374.72;;;12.21;100.00
33845;BME280;20145;43.118;25.694;2023-05-21T00:21:16;99394.41;;;12.30;100.00
33845;BME280;20145;43.118;25.694;2023-05-21T00:23:45;99388.38;;;12.29;100.00
33845;BME280;20145;43.118;25.694;2023-05-21T00:26:12;99392.59;;;12.33;100.00
33845;BME280;20145;43.118;25.694;2023-05-21T00:28:37;99389.09;;;12.36;100.00
33845;BME280;20145;43.118;25.694;2023-05-21T00:31:10;99371.88;;;12.33;100.00
33845;BME280;20145;43.118;25.694;2023-05-21T00:33:36;99391.38;;;12.51;100.00
33845;BME280;20145;43.118;25.694;2023-05-21T00:36:03;99390.50;;;12.52;100.00
33845;BME280;20145;43.118;25.694;2023-05-21T00:38:31;99377.56;;;12.52;100.00
33845;BME280;20145;43.118;25.694;2023-05-21T00:41:03;99388.47;;;12.66;100.00
33845;BME280;20145;43.118;25.694;2023-05-21T00:43:31;99388.53;;;12.65;100.00
33845;BME280;20145;43.118;25.694;2023-05-21T00:45:56;99375.66;;;12.62;100.00
33845;BME280;20145;43.118;25.694;2023-05-21T00:48:23;99375.41;;;12.72;100.00
33845;BME280;20145;43.118;25.694;2023-05-21T00:50:51;99386.56;;;12.75;100.00
33845;BME280;20145;43.118;25.694;2023-05-21T00:53:18;99376.47;;;12.64;100.00
33845;BME280;20145;43.118;25.694;2023-05-21T00:55:49;99381.44;;;12.73;100.00
33845;BME280;20145;43.118;25.694;2023-05-21T00:58:15;99378.88;;;12.71;100.00
33845;BME280;20145;43.118;25.694;2023-05-21T01:00:42;99383.06;;;12.77;100.00
33845;BME280;20145;43.118;25.694;2023-05-21T01:03:11;99382.16;;;12.80;100.00
33845;BME280;20145;43.118;25.694;2023-05-21T01:05:38;99375.19;;;12.83;100.00
33845;BME280;20145;43.118;25.694;2023-05-21T01:08:15;99360.66;;;12.78;100.00
33845;BME280;20145;43.118;25.694;2023-05-21T01:23:16;99345.78;;;12.86;100.00
33845;BME280;20145;43.118;25.694;2023-05-21T01:25:51;99368.75;;;13.00;100.00
33845;BME280;20145;43.118;25.694;2023-05-21T01:28:31;99379.94;;;13.03;100.00
33845;BME280;20145;43.118;25.694;2023-05-21T01:31:15;99378.25;;;13.01;100.00
33845;BME280;20145;43.118;25.694;2023-05-21T01:34:15;99379.09;;;13.01;100.00
33845;BME280;20145;43.118;25.694;2023-05-21T01:36:51;99368.75;;;13.00;100.00
33845;BME280;20145;43.118;25.694;2023-05-21T01:39:51;99381.53;;;13.09;100.00
33845;BME280;20145;43.118;25.694;2023-05-21T01:45:23;99342.22;;;12.91;100.00
33845;BME280;20145;43.118;25.694;2023-05-21T01:48:05;99367.59;;;13.13;100.00
33845;BME280;20145;43.118;25.694;2023-05-21T01:53:52;99364.06;;;13.17;100.00
33845;BME280;20145;43.118;25.694;2023-05-21T01:56:18;99360.56;;;13.20;100.00
33845;BME280;20145;43.118;25.694;2023-05-21T01:58:43;99361.34;;;13.22;100.00
33845;BME280;20145;43.118;25.694;2023-05-21T02:01:12;99359.63;;;13.22;100.00
33845;BME280;20145;43.118;25.694;2023-05-21T02:03:41;99359.72;;;13.19;100.00
33845;BME280;20145;43.118;25.694;2023-05-21T02:06:07;99359.63;;;13.22;100.00
33845;BME280;20145;43.118;25.694;2023-05-21T02:08:34;99356.16;;;13.23;100.00
33845;BME280;20145;43.118;25.694;2023-05-21T02:11:00;99368.22;;;13.26;100.00
33845;BME280;20145;43.118;25.694;2023-05-21T02:13:27;99345.81;;;13.22;100.00
33845;BME280;20145;43.118;25.694;2023-05-21T02:15:54;99346.69;;;13.21;100.00
33845;BME280;20145;43.118;25.694;2023-05-21T02:18:22;99329.50;;;13.18;100.00
33845;BME280;20145;43.118;25.694;2023-05-21T02:20:48;99346.56;;;13.28;100.00
33845;BME280;20145;43.118;25.694;2023-05-21T02:23:13;99328.66;;;13.17;100.00
33845;BME280;20145;43.118;25.694;2023-05-21T02:25:42;99330.41;;;13.15;100.00
33845;BME280;20145;43.118;25.694;2023-05-21T02:28:09;99340.63;;;13.22;100.00
33845;BME280;20145;43.118;25.694;2023-05-21T02:30:37;99342.28;;;13.24;100.00
33845;BME280;20145;43.118;25.694;2023-05-21T02:33:02;99325.22;;;13.15;100.00
33845;BME280;20145;43.118;25.694;2023-05-21T02:35:29;99332.81;;;13.23;100.00
33845;BME280;20145;43.118;25.694;2023-05-21T02:37:56;99327.75;;;13.18;100.00
33845;BME280;20145;43.118;25.694;2023-05-21T02:40:23;99341.41;;;13.27;100.00
33845;BME280;20145;43.118;25.694;2023-05-21T02:42:49;99333.59;;;13.28;100.00
33845;BME280;20145;43.118;25.694;2023-05-21T02:45:14;99338.78;;;13.28;100.00
33845;BME280;20145;43.118;25.694;2023-05-21T02:47:41;99343.06;;;13.29;100.00
33845;BME280;20145;43.118;25.694;2023-05-21T02:50:07;99338.72;;;13.30;100.00
33845;BME280;20145;43.118;25.694;2023-05-21T02:52:34;99339.53;;;13.33;100.00
33845;BME280;20145;43.118;25.694;2023-05-21T02:54:59;99352.44;;;13.35;100.00
33845;BME280;20145;43.118;25.694;2023-05-21T02:57:26;99354.16;;;13.36;100.00
33845;BME280;20145;43.118;25.694;2023-05-21T02:59:54;99344.66;;;13.35;100.00
33845;BME280;20145;43.118;25.694;2023-05-21T03:02:19;99325.94;;;13.22;100.00
33845;BME280;20145;43.118;25.694;2023-05-21T03:11:07;99355.78;;;13.40;100.00
33845;BME280;20145;43.118;25.694;2023-05-21T03:13:46;99342.19;;;13.30;100.00
33845;BME280;20145;43.118;25.694;2023-05-21T03:19:33;99359.94;;;13.46;100.00
33845;BME280;20145;43.118;25.694;2023-05-21T03:25:14;99359.00;;;13.50;100.00
33845;BME280;20145;43.118;25.694;2023-05-21T03:27:42;99358.84;;;13.56;100.00
33845;BME280;20145;43.118;25.694;2023-05-21T03:30:08;99347.72;;;13.51;100.00
33845;BME280;20145;43.118;25.694;2023-05-21T03:32:45;99356.00;;;13.65;100.00
33845;BME280;20145;43.118;25.694;2023-05-21T03:35:13;99341.34;;;13.64;100.00
33845;BME280;20145;43.118;25.694;2023-05-21T03:37:40;99358.22;;;13.80;100.00
33845;BME280;20145;43.118;25.694;2023-05-21T03:40:06;99365.06;;;13.83;100.00
33845;BME280;20145;43.118;25.694;2023-05-21T03:42:46;99368.44;;;13.85;100.00
33845;BME280;20145;43.118;25.694;2023-05-21T03:45:13;99356.13;;;13.93;100.00
33845;BME280;20145;43.118;25.694;2023-05-21T03:47:39;99359.47;;;13.98;100.00
33845;BME280;20145;43.118;25.694;2023-05-21T03:50:06;99365.03;;;14.16;100.00
33845;BME280;20145;43.118;25.694;2023-05-21T03:52:32;99368.81;;;14.35;100.00
33845;BME280;20145;43.118;25.694;2023-05-21T03:54:57;99358.88;;;14.51;100.00
33845;BME280;20145;43.118;25.694;2023-05-21T03:57:23;99367.63;;;15.06;100.00
33845;BME280;20145;43.118;25.694;2023-05-21T03:59:48;99367.78;;;15.30;100.00
33845;BME280;20145;43.118;25.694;2023-05-21T04:02:14;99370.78;;;15.71;100.00
33845;BME280;20145;43.118;25.694;2023-05-21T04:04:40;99368.72;;;15.80;100.00
33845;BME280;20145;43.118;25.694;2023-05-21T04:07:05;99369.19;;;15.65;100.00
33845;BME280;20145;43.118;25.694;2023-05-21T04:09:39;99346.66;;;15.39;100.00
33845;BME280;20145;43.118;25.694;2023-05-21T04:12:05;99374.13;;;15.48;100.00
33845;BME280;20145;43.118;25.694;2023-05-21T04:14:32;99377.19;;;15.60;100.00
33845;BME280;20145;43.118;25.694;2023-05-21T04:16:58;99364.13;;;15.35;100.00
33845;BME280;20145;43.118;25.694;2023-05-21T04:19:24;99371.06;;;15.35;100.00
33845;BME280;20145;43.118;25.694;2023-05-21T04:21:49;99370.44;;;15.27;100.00
33845;BME280;20145;43.118;25.694;2023-05-21T04:24:15;99360.13;;;15.25;100.00
33845;BME280;20145;43.118;25.694;2023-05-21T04:26:41;99384.72;;;15.42;100.00
33845;BME280;20145;43.118;25.694;2023-05-21T04:29:07;99356.22;;;15.38;100.00
33845;BME280;20145;43.118;25.694;2023-05-21T04:31:33;99383.00;;;15.67;100.00
33845;BME280;20145;43.118;25.694;2023-05-21T04:33:59;99375.81;;;16.02;100.00
33845;BME280;20145;43.118;25.694;2023-05-21T04:36:25;99386.59;;;16.40;100.00
33845;BME280;20145;43.118;25.694;2023-05-21T04:38:53;99403.34;;;16.56;100.00
33845;BME280;20145;43.118;25.694;2023-05-21T04:41:19;99395.38;;;16.61;100.00
33845;BME280;20145;43.118;25.694;2023-05-21T04:43:45;99407.44;;;16.63;99.71
33845;BME280;20145;43.118;25.694;2023-05-21T04:46:11;99384.28;;;16.56;100.00
33845;BME280;20145;43.118;25.694;2023-05-21T04:48:45;99397.72;;;16.68;100.00
33845;BME280;20145;43.118;25.694;2023-05-21T04:51:14;99383.94;;;16.65;100.00
33845;BME280;20145;43.118;25.694;2023-05-21T04:53:39;99394.47;;;16.62;100.00
33845;BME280;20145;43.118;25.694;2023-05-21T04:56:05;99390.75;;;16.69;100.00
33845;BME280;20145;43.118;25.694;2023-05-21T04:58:33;99387.13;;;16.49;100.00
33845;BME280;20145;43.118;25.694;2023-05-21T05:01:00;99387.81;;;16.55;99.71
33845;BME280;20145;43.118;25.694;2023-05-21T05:03:29;99372.38;;;16.48;99.09
33845;BME280;20145;43.118;25.694;2023-05-21T05:05:55;99366.97;;;16.55;99.46
33845;BME280;20145;43.118;25.694;2023-05-21T05:08:21;99377.75;;;16.67;98.46
33845;BME280;20145;43.118;25.694;2023-05-21T05:10:47;99375.47;;;16.83;98.95
33845;BME280;20145;43.118;25.694;2023-05-21T05:13:15;99366.38;;;16.93;99.00
33845;BME280;20145;43.118;25.694;2023-05-21T05:15:41;99391.31;;;17.23;97.24
33845;BME280;20145;43.118;25.694;2023-05-21T05:18:07;99373.13;;;17.43;96.15
33845;BME280;20145;43.118;25.694;2023-05-21T05:20:34;99371.88;;;17.52;96.28
33845;BME280;20145;43.118;25.694;2023-05-21T05:23:00;99377.38;;;17.66;95.85
33845;BME280;20145;43.118;25.694;2023-05-21T05:25:25;99381.91;;;17.83;94.59
33845;BME280;20145;43.118;25.694;2023-05-21T05:27:51;99368.19;;;17.78;93.95
33845;BME280;20145;43.118;25.694;2023-05-21T05:30:17;99385.91;;;17.92;94.80
33845;BME280;20145;43.118;25.694;2023-05-21T05:32:42;99387.00;;;18.06;93.53
33845;BME280;20145;43.118;25.694;2023-05-21T05:35:08;99372.72;;;17.95;94.11
33845;BME280;20145;43.118;25.694;2023-05-21T05:37:34;99391.63;;;18.20;93.78
33845;BME280;20145;43.118;25.694;2023-05-21T05:40:01;99383.81;;;18.39;93.34
33845;BME280;20145;43.118;25.694;2023-05-21T05:42:28;99377.69;;;18.59;92.63
33845;BME280;20145;43.118;25.694;2023-05-21T05:44:54;99367.13;;;18.43;90.89
33845;BME280;20145;43.118;25.694;2023-05-21T05:47:20;99380.19;;;18.43;91.19
33845;BME280;20145;43.118;25.694;2023-05-21T05:49:46;99369.56;;;18.27;91.09
33845;BME280;20145;43.118;25.694;2023-05-21T05:52:11;99388.03;;;18.23;89.99
33845;BME280;20145;43.118;25.694;2023-05-21T05:54:37;99378.50;;;18.22;91.05
33845;BME280;20145;43.118;25.694;2023-05-21T05:57:03;99380.03;;;18.46;91.83
33845;BME280;20145;43.118;25.694;2023-05-21T05:59:29;99367.19;;;18.61;89.16
33845;BME280;20145;43.118;25.694;2023-05-21T06:01:55;99375.22;;;18.96;89.30
33845;BME280;20145;43.118;25.694;2023-05-21T06:04:20;99377.41;;;19.22;88.30
33845;BME280;20145;43.118;25.694;2023-05-21T06:06:46;99375.88;;;19.18;85.39
33845;BME280;20145;43.118;25.694;2023-05-21T06:09:12;99367.91;;;19.02;84.67
33845;BME280;20145;43.118;25.694;2023-05-21T06:11:38;99367.13;;;19.00;85.11
33845;BME280;20145;43.118;25.694;2023-05-21T06:14:03;99370.06;;;19.11;85.33
33845;BME280;20145;43.118;25.694;2023-05-21T06:16:29;99377.84;;;19.32;83.95
33845;BME280;20145;43.118;25.694;2023-05-21T06:18:58;99383.22;;;19.29;85.00
33845;BME280;20145;43.118;25.694;2023-05-21T06:21:23;99377.22;;;19.08;83.83
33845;BME280;20145;43.118;25.694;2023-05-21T06:23:49;99374.63;;;18.89;84.25
33845;BME280;20145;43.118;25.694;2023-05-21T06:26:14;99374.63;;;18.89;85.87
33845;BME280;20145;43.118;25.694;2023-05-21T06:28:40;99374.63;;;18.89;85.39
33845;BME280;20145;43.118;25.694;2023-05-21T06:31:06;99361.34;;;18.93;85.80
33845;BME280;20145;43.118;25.694;2023-05-21T06:33:31;99358.91;;;18.70;86.28
33845;BME280;20145;43.118;25.694;2023-05-21T06:35:57;99365.53;;;18.39;89.15
33845;BME280;20145;43.118;25.694;2023-05-21T06:38:23;99358.78;;;18.54;90.47
33845;BME280;20145;43.118;25.694;2023-05-21T06:40:48;99339.75;;;18.32;89.85
33845;BME280;20145;43.118;25.694;2023-05-21T06:43:14;99344.72;;;18.57;89.56
33845;BME280;20145;43.118;25.694;2023-05-21T06:45:40;99343.47;;;18.46;90.41
33845;BME280;20145;43.118;25.694;2023-05-21T06:48:05;99350.94;;;18.35;91.08
33845;BME280;20145;43.118;25.694;2023-05-21T06:50:31;99349.66;;;18.44;91.96
33845;BME280;20145;43.118;25.694;2023-05-21T06:52:57;99349.38;;;18.50;92.79
33845;BME280;20145;43.118;25.694;2023-05-21T06:55:22;99352.69;;;18.74;91.37
33845;BME280;20145;43.118;25.694;2023-05-21T06:57:48;99349.19;;;18.92;89.51
33845;BME280;20145;43.118;25.694;2023-05-21T07:00:14;99349.13;;;18.94;88.29
33845;BME280;20145;43.118;25.694;2023-05-21T07:02:39;99349.00;;;18.78;89.32
33845;BME280;20145;43.118;25.694;2023-05-21T07:05:05;99351.72;;;18.94;89.14
33845;BME280;20145;43.118;25.694;2023-05-21T07:07:31;99349.47;;;19.05;89.15
33845;BME280;20145;43.118;25.694;2023-05-21T07:09:59;99351.19;;;19.24;87.48
33845;BME280;20145;43.118;25.694;2023-05-21T07:12:24;99355.59;;;19.41;86.22
33845;BME280;20145;43.118;25.694;2023-05-21T07:14:50;99347.59;;;19.44;87.61
33845;BME280;20145;43.118;25.694;2023-05-21T07:17:15;99352.69;;;19.64;84.98
33845;BME280;20145;43.118;25.694;2023-05-21T07:19:41;99338.06;;;19.60;84.88
33845;BME280;20145;43.118;25.694;2023-05-21T07:22:06;99343.94;;;19.82;83.92
33845;BME280;20145;43.118;25.694;2023-05-21T07:24:32;99327.00;;;19.72;83.69
33845;BME280;20145;43.118;25.694;2023-05-21T07:26:57;99340.00;;;19.74;84.99
33845;BME280;20145;43.118;25.694;2023-05-21T07:29:23;99345.41;;;19.71;83.84
33845;BME280;20145;43.118;25.694;2023-05-21T07:31:48;99350.56;;;19.72;82.95
33845;BME280;20145;43.118;25.694;2023-05-21T07:34:14;99345.31;;;19.72;84.77
33845;BME280;20145;43.118;25.694;2023-05-21T07:36:40;99351.84;;;19.81;83.18
33845;BME280;20145;43.118;25.694;2023-05-21T07:39:05;99355.38;;;19.97;82.15
33845;BME280;20145;43.118;25.694;2023-05-21T07:41:31;99348.38;;;19.80;82.82
33845;BME280;20145;43.118;25.694;2023-05-21T07:43:57;99347.75;;;19.41;84.74
33845;BME280;20145;43.118;25.694;2023-05-21T07:46:24;99350.69;;;19.52;84.41
33845;BME280;20145;43.118;25.694;2023-05-21T07:48:49;99346.31;;;19.70;85.00
33845;BME280;20145;43.118;25.694;2023-05-21T07:51:15;99343.31;;;19.77;83.80
33845;BME280;20145;43.118;25.694;2023-05-21T07:53:41;99342.19;;;19.64;83.64
33845;BME280;20145;43.118;25.694;2023-05-21T07:56:07;99347.03;;;19.73;84.10
33845;BME280;20145;43.118;25.694;2023-05-21T07:58:32;99329.28;;;19.44;85.43
33845;BME280;20145;43.118;25.694;2023-05-21T08:00:59;99331.44;;;19.53;83.91
33845;BME280;20145;43.118;25.694;2023-05-21T08:03:25;99332.06;;;19.75;86.19
33845;BME280;20145;43.118;25.694;2023-05-21T08:05:52;99334.31;;;19.66;83.91
33845;BME280;20145;43.118;25.694;2023-05-21T08:08:18;99333.97;;;19.89;81.31
33845;BME280;20145;43.118;25.694;2023-05-21T08:10:44;99333.53;;;20.14;80.89
33845;BME280;20145;43.118;25.694;2023-05-21T08:13:11;99335.03;;;20.36;81.18
33845;BME280;20145;43.118;25.694;2023-05-21T08:15:37;99335.31;;;20.14;79.47
33845;BME280;20145;43.118;25.694;2023-05-21T08:18:03;99334.81;;;20.40;78.82
33845;BME280;20145;43.118;25.694;2023-05-21T08:20:29;99338.50;;;20.36;80.79
33845;BME280;20145;43.118;25.694;2023-05-21T08:22:56;99315.97;;;20.16;81.20
33845;BME280;20145;43.118;25.694;2023-05-21T08:25:21;99345.06;;;20.27;77.92
33845;BME280;20145;43.118;25.694;2023-05-21T08:27:47;99342.84;;;20.20;71.83
33845;BME280;20145;43.118;25.694;2023-05-21T08:30:13;99338.03;;;20.12;72.22
33845;BME280;20145;43.118;25.694;2023-05-21T08:32:39;99344.09;;;20.46;71.86
33845;BME280;20145;43.118;25.694;2023-05-21T08:35:05;99347.69;;;20.61;75.43
33845;BME280;20145;43.118;25.694;2023-05-21T08:37:31;99334.84;;;20.72;74.82
33845;BME280;20145;43.118;25.694;2023-05-21T08:39:57;99348.13;;;21.01;75.80
33845;BME280;20145;43.118;25.694;2023-05-21T08:44:59;99354.03;;;21.20;77.46
33845;BME280;20145;43.118;25.694;2023-05-21T08:47:25;99361.28;;;21.31;74.57
33845;BME280;20145;43.118;25.694;2023-05-21T08:49:54;99350.31;;;21.40;72.06
33845;BME280;20145;43.118;25.694;2023-05-21T08:52:20;99355.06;;;21.64;70.93
33845;BME280;20145;43.118;25.694;2023-05-21T08:54:47;99361.53;;;21.72;71.82
33845;BME280;20145;43.118;25.694;2023-05-21T08:57:14;99352.00;;;21.86;72.54
33845;BME280;20145;43.118;25.694;2023-05-21T08:59:41;99355.03;;;21.94;69.96
33845;BME280;20145;43.118;25.694;2023-05-21T09:02:12;99362.72;;;21.97;71.15
33845;BME280;20145;43.118;25.694;2023-05-21T09:04:39;99358.03;;;22.16;70.62
33845;BME280;20145;43.118;25.694;2023-05-21T09:07:06;99358.75;;;22.34;69.48
33845;BME280;20145;43.118;25.694;2023-05-21T09:09:40;99358.00;;;22.88;68.77
33845;BME280;20145;43.118;25.694;2023-05-21T09:12:07;99358.91;;;23.15;69.30
33845;BME280;20145;43.118;25.694;2023-05-21T09:14:34;99365.06;;;23.69;66.44
33845;BME280;20145;43.118;25.694;2023-05-21T09:16:59;99359.22;;;24.03;65.91
33845;BME280;20145;43.118;25.694;2023-05-21T09:19:25;99358.72;;;24.11;65.52
33845;BME280;20145;43.118;25.694;2023-05-21T09:21:53;99368.38;;;24.11;65.85
33845;BME280;20145;43.118;25.694;2023-05-21T09:24:20;99364.66;;;23.75;63.66
33845;BME280;20145;43.118;25.694;2023-05-21T09:26:49;99360.75;;;23.68;63.82
33845;BME280;20145;43.118;25.694;2023-05-21T09:29:15;99361.03;;;23.50;64.66
33845;BME280;20145;43.118;25.694;2023-05-21T09:31:43;99367.78;;;23.54;63.32
33845;BME280;20145;43.118;25.694;2023-05-21T09:34:09;99346.06;;;23.64;62.90
33845;BME280;20145;43.118;25.694;2023-05-21T09:36:36;99359.97;;;24.06;63.32
33845;BME280;20145;43.118;25.694;2023-05-21T09:39:02;99343.31;;;23.92;62.59
33845;BME280;20145;43.118;25.694;2023-05-21T09:41:32;99362.81;;;24.02;62.74
33845;BME280;20145;43.118;25.694;2023-05-21T09:44:00;99363.03;;;24.12;64.31
33845;BME280;20145;43.118;25.694;2023-05-21T09:46:26;99351.72;;;24.10;64.92
33845;BME280;20145;43.118;25.694;2023-05-21T09:48:52;99362.38;;;24.34;62.91
33845;BME280;20145;43.118;25.694;2023-05-21T09:51:19;99345.72;;;24.34;60.26
33845;BME280;20145;43.118;25.694;2023-05-21T09:53:55;99364.03;;;24.61;59.28
33845;BME280;20145;43.118;25.694;2023-05-21T09:56:26;99369.88;;;25.03;60.42
33845;BME280;20145;43.118;25.694;2023-05-21T09:58:59;99353.22;;;25.13;58.52
33845;BME280;20145;43.118;25.694;2023-05-21T10:01:26;99356.63;;;25.15;56.67
33845;BME280;20145;43.118;25.694;2023-05-21T10:03:57;99359.38;;;25.38;57.25
33845;BME280;20145;43.118;25.694;2023-05-21T10:06:25;99357.56;;;25.74;55.98
33845;BME280;20145;43.118;25.694;2023-05-21T10:08:53;99360.22;;;25.74;55.09
33845;BME280;20145;43.118;25.694;2023-05-21T10:11:25;99357.19;;;25.67;56.46
33845;BME280;20145;43.118;25.694;2023-05-21T10:14:04;99350.09;;;25.68;56.21
33845;BME280;20145;43.118;25.694;2023-05-21T10:16:32;99348.56;;;25.76;56.22
33845;BME280;20145;43.118;25.694;2023-05-21T10:18:59;99349.25;;;25.32;56.25
33845;BME280;20145;43.118;25.694;2023-05-21T10:21:29;99327.75;;;25.25;56.23
33845;BME280;20145;43.118;25.694;2023-05-21T10:23:56;99342.44;;;25.41;56.59
33845;BME280;20145;43.118;25.694;2023-05-21T10:26:22;99347.06;;;25.26;57.67
33845;BME280;20145;43.118;25.694;2023-05-21T10:28:49;99348.19;;;24.74;58.03
33845;BME280;20145;43.118;25.694;2023-05-21T10:31:15;99346.38;;;24.50;59.95
33845;BME280;20145;43.118;25.694;2023-05-21T10:33:42;99341.38;;;24.33;58.80
33845;BME280;20145;43.118;25.694;2023-05-21T10:36:08;99334.66;;;23.90;60.85
33845;BME280;20145;43.118;25.694;2023-05-21T10:38:35;99339.81;;;24.04;61.13
33845;BME280;20145;43.118;25.694;2023-05-21T10:41:02;99336.56;;;24.01;61.11
33845;BME280;20145;43.118;25.694;2023-05-21T10:52:37;99316.63;;;23.97;65.21
33845;BME280;20145;43.118;25.694;2023-05-21T11:00:53;99308.41;;;23.89;60.01
33845;BME280;20145;43.118;25.694;2023-05-21T11:03:20;99315.69;;;23.98;60.94
33845;BME280;20145;43.118;25.694;2023-05-21T11:05:56;99315.34;;;24.02;59.15
33845;BME280;20145;43.118;25.694;2023-05-21T11:08:28;99313.69;;;24.14;59.82
33845;BME280;20145;43.118;25.694;2023-05-21T11:11:00;99306.50;;;24.03;58.43
33845;BME280;20145;43.118;25.694;2023-05-21T11:13:28;99306.81;;;24.12;57.69
33845;BME280;20145;43.118;25.694;2023-05-21T11:21:04;99288.69;;;24.69;56.62
33845;BME280;20145;43.118;25.694;2023-05-21T11:23:53;99289.94;;;25.01;58.43
33845;BME280;20145;43.118;25.694;2023-05-21T11:26:24;99278.81;;;24.84;56.16
33845;BME280;20145;43.118;25.694;2023-05-21T11:29:09;99271.19;;;25.17;53.66
33845;BME280;20145;43.118;25.694;2023-05-21T11:31:35;99279.06;;;25.52;53.05
33845;BME280;20145;43.118;25.694;2023-05-21T11:36:44;99274.94;;;25.72;53.22
33845;BME280;20145;43.118;25.694;2023-05-21T11:39:14;99266.34;;;25.57;50.82
33845;BME280;20145;43.118;25.694;2023-05-21T11:41:58;99272.69;;;26.01;51.56
33845;BME280;20145;43.118;25.694;2023-05-21T11:44:41;99261.97;;;26.25;50.48
33845;BME280;20145;43.118;25.694;2023-05-21T11:47:09;99279.19;;;26.08;50.92
33845;BME280;20145;43.118;25.694;2023-05-21T11:49:35;99251.25;;;25.70;51.34
33845;BME280;20145;43.118;25.694;2023-05-21T11:52:03;99255.56;;;25.71;50.99
33845;BME280;20145;43.118;25.694;2023-05-21T11:54:29;99257.19;;;25.03;53.74
33845;BME280;20145;43.118;25.694;2023-05-21T11:56:58;99237.44;;;24.96;54.06
33845;BME280;20145;43.118;25.694;2023-05-21T11:59:25;99240.59;;;24.77;54.79
33845;BME280;20145;43.118;25.694;2023-05-21T12:01:51;99232.75;;;24.64;54.68
33845;BME280;20145;43.118;25.694;2023-05-21T12:04:16;99237.53;;;24.22;53.18
33845;BME280;20145;43.118;25.694;2023-05-21T12:06:42;99234.22;;;24.32;56.38
33845;BME280;20145;43.118;25.694;2023-05-21T12:09:09;99237.16;;;24.27;56.05
33845;BME280;20145;43.118;25.694;2023-05-21T12:11:37;99235.72;;;24.60;57.32
33845;BME280;20145;43.118;25.694;2023-05-21T12:14:08;99220.91;;;24.70;55.50
33845;BME280;20145;43.118;25.694;2023-05-21T12:16:34;99225.03;;;24.85;56.32
33845;BME280;20145;43.118;25.694;2023-05-21T12:19:04;99234.63;;;25.10;56.50
33845;BME280;20145;43.118;25.694;2023-05-21T12:21:30;99227.50;;;25.24;55.06
33845;BME280;20145;43.118;25.694;2023-05-21T12:23:56;99240.56;;;24.90;54.67
33845;BME280;20145;43.118;25.694;2023-05-21T12:26:23;99233.16;;;24.71;55.49
33845;BME280;20145;43.118;25.694;2023-05-21T12:28:55;99233.22;;;24.58;56.14
33845;BME280;20145;43.118;25.694;2023-05-21T12:31:21;99231.00;;;24.52;56.42
33845;BME280;20145;43.118;25.694;2023-05-21T12:33:50;99218.75;;;24.14;55.24
33845;BME280;20145;43.118;25.694;2023-05-21T12:36:26;99220.13;;;24.07;56.62
33845;BME280;20145;43.118;25.694;2023-05-21T12:38:53;99225.19;;;24.10;57.81
33845;BME280;20145;43.118;25.694;2023-05-21T12:41:19;99210.19;;;24.23;57.25
33845;BME280;20145;43.118;25.694;2023-05-21T12:43:46;99203.69;;;24.40;56.97
33845;BME280;20145;43.118;25.694;2023-05-21T12:46:12;99190.88;;;24.60;56.82
33845;BME280;20145;43.118;25.694;2023-05-21T12:48:39;99203.22;;;24.83;55.73
33845;BME280;20145;43.118;25.694;2023-05-21T12:51:07;99193.78;;;24.92;55.64
33845;BME280;20145;43.118;25.694;2023-05-21T12:53:36;99197.19;;;25.05;53.95
33845;BME280;20145;43.118;25.694;2023-05-21T12:56:12;99183.81;;;25.20;56.81
33845;BME280;20145;43.118;25.694;2023-05-21T12:58:39;99182.75;;;25.45;52.32
33845;BME280;20145;43.118;25.694;2023-05-21T13:01:09;99182.50;;;25.36;51.16
33845;BME280;20145;43.118;25.694;2023-05-21T13:03:40;99173.50;;;25.39;52.47
33845;BME280;20145;43.118;25.694;2023-05-21T13:06:06;99171.13;;;25.47;53.36
33845;BME280;20145;43.118;25.694;2023-05-21T13:08:32;99181.06;;;25.44;51.62
33845;BME280;20145;43.118;25.694;2023-05-21T13:11:00;99163.31;;;25.10;51.49
33845;BME280;20145;43.118;25.694;2023-05-21T13:13:26;99166.84;;;25.11;51.54
33845;BME280;20145;43.118;25.694;2023-05-21T13:15:52;99163.84;;;25.15;53.03
33845;BME280;20145;43.118;25.694;2023-05-21T13:18:19;99172.03;;;25.24;51.58
33845;BME280;20145;43.118;25.694;2023-05-21T13:20:45;99170.97;;;25.37;52.15
33845;BME280;20145;43.118;25.694;2023-05-21T13:23:13;99165.34;;;25.53;51.38
33845;BME280;20145;43.118;25.694;2023-05-21T13:25:38;99164.63;;;25.63;51.76
33845;BME280;20145;43.118;25.694;2023-05-21T13:28:04;99154.44;;;25.58;51.83
33845;BME280;20145;43.118;25.694;2023-05-21T13:30:30;99147.44;;;25.57;48.24
33845;BME280;20145;43.118;25.694;2023-05-21T13:32:57;99157.53;;;25.74;49.32
33845;BME280;20145;43.118;25.694;2023-05-21T13:35:23;99138.56;;;25.80;48.80
33845;BME280;20145;43.118;25.694;2023-05-21T13:37:51;99131.25;;;25.50;47.37
33845;BME280;20145;43.118;25.694;2023-05-21T13:40:18;99148.41;;;25.56;47.72
33845;BME280;20145;43.118;25.694;2023-05-21T13:42:46;99140.34;;;25.46;47.57
33845;BME280;20145;43.118;25.694;2023-05-21T13:45:13;99143.81;;;25.24;49.26